Chomedey, Canada
Current Conditions -  °F | °C
As of 8:00 AM on Thursday 27 Nov 2014 (Local Time) from CYUL Reporting Station
Broken Clouds Broken Clouds  
Wind Chill: 19°   Ceiling: 3000
Heat Index: 28°   Visibility: 15mi
Dew Point: 16°   Wind: 10mph
Humidity: 59%   Direction: 360°N
Pressure: 30.03"   Gusts: NA
Location:  45.55°N, 73.73°W
Report Text: CYUL 271300Z 36009KT 15SM BKN030 M02/M09 A3003 RMK SC7 SLP172
Loading
Personal Weather Stations






























Interactive Weather Map New forecast layout! Learn more

10-Day Weather Forecast

Advertisements
Track Severe Weather on mobile